TimeMST,TemperatureF,Dew PointF,Humidity,Sea Level PressureIn,VisibilityMPH,Wind Direction,Wind SpeedMPH,Gust SpeedMPH,PrecipitationIn,Events,Conditions,WindDirDegrees,DateUTC
12:15 AM,19.4,15.8,86,29.84,10.0,WNW,6.9,-,N/A,,Clear,290,2013-02-22 07:15:00
12:35 AM,21.2,14.0,74,29.84,10.0,West,5.8,-,N/A,,Clear,280,2013-02-22 07:35:00
12:55 AM,19.4,10.4,68,29.84,10.0,Calm,Calm,-,N/A,,Clear,0,2013-02-22 07:55:00
1:15 AM,21.2,10.4,63,29.84,10.0,WNW,5.8,-,N/A,,Clear,300,2013-02-22 08:15:00
1:35 AM,21.2,10.4,63,29.84,10.0,NNW,4.6,-,N/A,,Clear,330,2013-02-22 08:35:00
1:55 AM,21.2,10.4,63,29.84,10.0,NW,5.8,-,N/A,,Clear,320,2013-02-22 08:55:00
2:15 AM,24.8,10.4,54,29.84,10.0,West,11.5,17.3,N/A,,Clear,260,2013-02-22 09:15:00
2:35 AM,24.8,10.4,54,29.83,10.0,West,9.2,-,N/A,,Clear,270,2013-02-22 09:35:00
2:55 AM,24.8,10.4,54,29.82,10.0,WNW,6.9,-,N/A,,Clear,290,2013-02-22 09:55:00
3:15 AM,24.8,10.4,54,29.83,10.0,NW,4.6,-,N/A,,Clear,320,2013-02-22 10:15:00
3:35 AM,21.2,8.6,58,29.82,10.0,NNW,4.6,-,N/A,,Clear,340,2013-02-22 10:35:00
3:55 AM,19.4,10.4,68,29.83,10.0,NNW,3.5,-,N/A,,Clear,330,2013-02-22 10:55:00
4:15 AM,19.4,8.6,63,29.83,10.0,Calm,Calm,-,N/A,,Clear,0,2013-02-22 11:15:00
4:35 AM,17.6,8.6,68,29.84,10.0,NE,5.8,-,N/A,,Clear,40,2013-02-22 11:35:00
4:55 AM,17.6,12.2,79,29.84,10.0,North,3.5,-,N/A,,Mostly Cloudy,350,2013-02-22 11:55:00
5:15 AM,15.8,10.4,79,29.83,10.0,NNE,5.8,-,N/A,,Mostly Cloudy,20,2013-02-22 12:15:00
5:55 AM,14.0,12.2,93,29.84,10.0,Calm,Calm,-,N/A,,Clear,0,2013-02-22 12:55:00
6:35 AM,17.6,10.4,73,29.84,10.0,West,5.8,-,N/A,,Scattered Clouds,280,2013-02-22 13:35:00
7:55 AM,21.2,10.4,63,29.85,10.0,North,4.6,-,N/A,,Clear,360,2013-02-22 14:55:00
8:15 AM,26.6,12.2,55,29.86,10.0,NW,8.1,-,N/A,,Clear,310,2013-02-22 15:15:00
8:35 AM,28.4,12.2,51,29.87,10.0,WNW,10.4,16.1,N/A,,Clear,290,2013-02-22 15:35:00
8:55 AM,28.4,10.4,47,29.87,10.0,WNW,5.8,-,N/A,,Clear,290,2013-02-22 15:55:00
9:15 AM,28.4,12.2,51,29.88,10.0,NW,6.9,-,N/A,,Clear,310,2013-02-22 16:15:00
9:35 AM,30.2,12.2,47,29.88,10.0,West,6.9,-,N/A,,Clear,280,2013-02-22 16:35:00
9:55 AM,28.4,14.0,55,29.88,10.0,NW,8.1,-,N/A,,Clear,310,2013-02-22 16:55:00
10:15 AM,30.2,12.2,47,29.88,10.0,NW,6.9,-,N/A,,Partly Cloudy,310,2013-02-22 17:15:00
10:35 AM,33.8,10.4,38,29.86,10.0,WSW,9.2,17.3,N/A,,Partly Cloudy,250,2013-02-22 17:35:00
10:55 AM,33.8,8.6,35,29.86,10.0,WSW,12.7,20.7,N/A,,Partly Cloudy,250,2013-02-22 17:55:00
11:15 AM,33.8,8.6,35,29.85,10.0,SW,11.5,20.7,N/A,,Partly Cloudy,230,2013-02-22 18:15:00
11:35 AM,33.8,8.6,35,29.84,10.0,WSW,12.7,-,N/A,,Partly Cloudy,250,2013-02-22 18:35:00
11:55 AM,35.6,6.8,30,29.84,10.0,WSW,13.8,18.4,N/A,,Clear,250,2013-02-22 18:55:00
12:15 PM,35.6,6.8,30,29.84,10.0,WSW,11.5,18.4,N/A,,Mostly Cloudy,240,2013-02-22 19:15:00
12:35 PM,35.6,6.8,30,29.83,10.0,West,9.2,16.1,N/A,,Mostly Cloudy,260,2013-02-22 19:35:00
12:55 PM,37.4,6.8,28,29.82,10.0,West,11.5,18.4,N/A,,Scattered Clouds,270,2013-02-22 19:55:00
1:15 PM,37.4,6.8,28,29.80,10.0,WSW,13.8,18.4,N/A,,Clear,250,2013-02-22 20:15:00
1:35 PM,37.4,6.8,28,29.79,10.0,West,15.0,21.9,N/A,,Clear,260,2013-02-22 20:35:00
1:55 PM,37.4,6.8,28,29.78,10.0,WSW,16.1,25.3,N/A,,Clear,250,2013-02-22 20:55:00
2:35 PM,35.6,8.6,33,29.76,10.0,WSW,18.4,29.9,N/A,,Clear,250,2013-02-22 21:35:00
3:15 PM,35.6,8.6,33,29.76,10.0,WSW,24.2,31.1,N/A,,Clear,250,2013-02-22 22:15:00
3:35 PM,35.6,6.8,30,29.75,10.0,WSW,19.6,34.5,N/A,,Clear,250,2013-02-22 22:35:00
3:55 PM,35.6,6.8,30,29.74,10.0,WSW,21.9,34.5,N/A,,Clear,240,2013-02-22 22:55:00
4:15 PM,33.8,6.8,32,29.74,10.0,WSW,26.5,44.9,N/A,,Clear,250,2013-02-22 23:15:00
4:35 PM,33.8,6.8,32,29.74,10.0,West,20.7,35.7,N/A,,Clear,260,2013-02-22 23:35:00
4:55 PM,33.8,6.8,32,29.74,10.0,West,23.0,42.6,N/A,,Clear,260,2013-02-22 23:55:00
5:35 PM,30.2,8.6,40,29.74,10.0,West,16.1,33.4,N/A,,Clear,260,2013-02-23 00:35:00
5:55 PM,30.2,6.8,37,29.74,10.0,West,20.7,38.0,N/A,,Clear,280,2013-02-23 00:55:00
6:15 PM,30.2,8.6,40,29.74,10.0,West,24.2,50.6,0.01,,Clear,260,2013-02-23 01:15:00
7:15 PM,30.2,8.6,40,29.72,10.0,West,17.3,40.3,N/A,,Clear,260,2013-02-23 02:15:00
7:55 PM,30.2,10.4,44,29.71,10.0,WSW,20.7,39.1,N/A,,Clear,250,2013-02-23 02:55:00
8:15 PM,30.2,10.4,44,29.70,10.0,WSW,24.2,42.6,N/A,,Clear,240,2013-02-23 03:15:00
8:35 PM,30.2,10.4,44,29.70,10.0,West,24.2,42.6,N/A,,Clear,260,2013-02-23 03:35:00
8:55 PM,30.2,10.4,44,29.69,10.0,WSW,23.0,34.5,N/A,,Clear,250,2013-02-23 03:55:00
9:35 PM,32.0,12.2,44,29.69,10.0,WSW,21.9,39.1,N/A,,Clear,250,2013-02-23 04:35:00
9:55 PM,32.0,12.2,44,29.69,10.0,West,15.0,36.8,N/A,,Clear,270,2013-02-23 04:55:00
10:35 PM,33.8,12.2,41,29.66,10.0,WSW,18.4,34.5,N/A,,Clear,240,2013-02-23 05:35:00
11:15 PM,33.8,14.0,44,29.64,10.0,WSW,26.5,39.1,N/A,,Partly Cloudy,240,2013-02-23 06:15:00
11:35 PM,33.8,14.0,44,29.65,10.0,WSW,24.2,36.8,N/A,,Scattered Clouds,240,2013-02-23 06:35:00
11:55 PM,33.8,14.0,44,29.65,10.0,WSW,24.2,34.5,N/A,,Partly Cloudy,250,2013-02-23 06:55:00